Date,TemperatureHighF,TemperatureAvgF,TemperatureLowF,DewpointHighF,DewpointAvgF,DewpointLowF,HumidityHigh,HumidityAvg,HumidityLow,PressureMaxIn,PressureMinIn,WindSpeedMaxMPH,WindSpeedAvgMPH,GustSpeedMaxMPH,PrecipitationSumIn
2013-1-1,79,71,62,63,60,58,91,70,55,30.17,30.02,7,1,12,0.00
2013-1-2,80,70,58,68,63,57,98,81,55,30.07,29.96,6,0,14,0.00
2013-1-3,82,72,64,69,66,62,97,83,61,30.10,30.00,4,0,11,0.00
2013-1-4,80,71,63,70,66,62,99,87,58,30.20,30.08,5,1,10,0.00
2013-1-5,73,68,63,70,66,62,95,92,85,30.23,30.13,6,1,12,0.08
2013-1-6,81,72,63,73,68,62,100,88,68,30.17,30.03,5,1,11,0.00
2013-1-7,75,70,66,71,68,65,99,93,80,30.14,30.05,5,0,10,0.30
2013-1-8,80,74,69,74,70,68,98,89,75,30.18,30.05,6,1,14,0.52
2013-1-9,82,76,72,72,70,68,94,82,70,30.25,30.13,7,2,17,0.02
2013-1-10,80,75,71,69,66,63,89,75,59,30.27,30.16,10,3,19,0.00
2013-1-11,79,74,71,70,68,66,89,81,70,30.23,30.13,8,2,17,0.00
2013-1-12,81,74,67,69,66,63,91,77,62,30.16,30.07,7,2,14,0.00
2013-1-13,80,73,67,69,65,61,92,76,61,30.10,30.05,7,1,17,0.00
2013-1-14,80,72,63,66,64,60,94,78,60,30.14,30.09,4,1,13,0.00
2013-1-15,79,72,67,68,66,63,91,79,64,30.11,30.02,6,1,14,0.00
2013-1-16,81,72,62,69,66,59,98,82,63,30.08,29.99,5,1,11,0.03
2013-1-17,80,71,61,71,65,51,97,82,67,30.06,29.94,12,2,22,0.00
2013-1-18,71,63,52,59,52,45,79,69,58,30.21,30.07,9,3,17,0.00
2013-1-19,70,68,66,68,64,59,97,87,70,30.19,30.08,5,0,11,0.20
2013-1-20,78,70,63,69,66,62,100,87,64,30.12,29.98,7,1,11,0.03
2013-1-21,79,71,64,70,67,63,99,88,71,30.04,29.93,6,0,12,0.22
2013-1-22,75,67,62,63,58,52,94,73,56,30.19,29.98,10,4,20,0.00
2013-1-23,74,66,60,59,55,52,81,68,48,30.27,30.17,8,3,16,0.00
2013-1-24,74,64,56,55,51,40,91,65,40,30.27,30.17,6,2,16,0.00
2013-1-25,75,64,54,59,55,50,94,74,54,30.27,30.15,5,1,12,0.00
2013-1-26,77,65,57,59,56,50,94,74,47,30.23,30.13,5,1,12,0.00
2013-1-27,77,68,60,63,59,57,93,74,50,30.26,30.17,8,2,16,0.00
2013-1-28,80,73,67,67,64,60,85,73,58,30.29,30.20,8,2,18,0.00
2013-1-29,78,73,69,70,67,64,92,81,69,30.20,30.10,4,1,14,0.02
2013-1-30,80,73,69,67,65,63,92,75,62,30.10,29.94,8,2,16,0.00
2013-1-31,70,65,55,70,57,40,99,78,47,30.16,29.92,8,2,18,0.00
2013-2-1,72,61,52,56,47,36,73,61,52,30.25,30.14,10,4,18,0.02
2013-2-2,73,61,54,53,47,35,88,61,46,30.24,30.10,7,1,14,0.00
2013-2-3,73,61,50,54,47,36,93,66,27,30.15,30.04,6,1,16,0.00
2013-2-4,74,60,49,54,47,38,94,64,32,30.12,30.00,5,0,11,0.00
2013-2-5,78,64,51,62,56,49,96,78,44,30.06,29.97,4,0,11,0.00
2013-2-6,79,68,57,66,61,56,98,81,61,30.08,29.99,6,1,14,0.00
2013-2-7,81,72,62,67,63,59,94,76,55,30.05,29.91,7,1,11,0.00
2013-2-8,81,71,64,69,64,59,97,81,51,30.00,29.89,8,1,13,0.00
2013-2-9,79,70,62,66,62,59,97,78,56,30.15,29.99,9,3,16,0.00
2013-2-10,74,70,66,64,61,58,83,74,64,30.24,30.13,10,4,19,0.00
2013-2-11,79,70,63,65,62,59,91,76,62,30.19,30.08,5,1,13,0.00
2013-2-12,86,72,60,69,64,58,98,79,46,30.09,29.94,4,1,12,0.00
2013-2-13,88,75,66,72,68,63,99,80,49,29.98,29.85,6,1,14,0.00
2013-2-14,79,69,62,71,66,61,97,93,76,29.98,29.83,11,2,19,0.00
2013-2-15,71,66,63,67,64,61,98,94,79,30.00,29.91,4,1,12,0.00
2013-2-16,71,64,54,63,56,43,97,76,46,30.05,29.85,11,4,21,0.00
2013-2-17,58,51,43,43,28,18,69,44,24,30.29,30.06,13,4,24,0.00
2013-2-18,70,58,46,56,43,30,71,59,46,30.30,30.18,10,3,21,0.00
2013-2-19,78,69,55,65,60,51,91,73,57,30.18,30.05,6,2,11,2.72
2013-2-20,79,69,62,67,63,59,96,82,56,30.09,29.98,7,1,12,0.00
2013-2-21,81,71,62,69,65,60,97,82,59,30.07,29.97,5,1,12,0.00
2013-2-22,82,74,67,71,68,65,95,83,66,30.07,29.99,6,2,12,0.00
2013-2-23,84,76,69,72,69,67,96,82,63,30.02,29.88,10,2,20,0.77
2013-2-24,86,76,69,74,70,66,99,84,52,29.97,29.86,4,1,8,0.00
2013-2-25,84,74,66,74,70,65,98,86,65,29.88,29.78,7,1,12,0.02
2013-2-26,86,78,73,72,70,68,93,79,57,29.86,29.77,9,2,17,0.00
2013-2-27,76,69,61,73,64,60,97,86,62,29.94,29.83,5,1,11,1.20
2013-2-28,68,63,58,63,54,46,97,74,47,29.98,29.88,6,1,16,0.00
2013-3-1,65,61,57,57,50,47,90,67,54,29.96,29.87,6,1,12,0.00
2013-3-2,65,57,51,50,41,34,78,56,37,30.01,29.93,12,3,24,0.00
2013-3-3,60,53,48,45,41,36,82,64,46,30.13,29.94,9,3,21,0.00
2013-3-4,66,53,42,44,35,28,87,54,24,30.19,30.10,9,2,19,0.00
2013-3-5,76,59,46,58,51,44,95,76,47,30.16,30.06,4,0,10,0.00
2013-3-6,76,64,53,63,50,32,98,67,27,30.07,29.92,12,3,22,0.00
2013-3-7,70,58,47,55,44,35,92,62,35,30.16,30.05,7,2,16,0.00
2013-3-8,75,62,50,53,49,39,94,68,28,30.18,30.08,6,1,11,0.00
2013-3-9,75,64,52,57,52,48,90,68,50,30.16,30.08,7,2,16,0.00
2013-3-10,76,68,62,61,56,52,79,64,50,30.14,30.05,9,3,19,0.00
2013-3-11,78,70,66,62,60,57,79,69,50,30.08,29.93,10,2,17,0.00
2013-3-12,82,73,66,68,64,61,88,75,62,29.97,29.88,6,2,16,0.00
2013-3-13,75,65,56,65,53,42,90,68,33,30.09,29.95,10,3,20,0.00
2013-3-14,71,60,53,52,45,37,90,61,29,30.18,30.06,9,4,18,0.00
2013-3-15,72,61,51,53,49,43,81,65,38,30.23,30.13,8,3,14,0.00
2013-3-16,76,63,50,56,52,48,96,72,43,30.17,30.06,6,1,12,0.00
2013-3-17,77,66,54,62,58,52,95,75,52,30.13,30.00,6,1,14,0.00
2013-3-18,81,70,62,70,64,58,97,83,62,30.05,29.93,6,1,18,0.44
2013-3-19,79,71,66,69,66,63,98,85,62,29.98,29.81,7,1,15,0.00
2013-3-20,84,72,61,69,63,55,98,77,43,29.94,29.77,9,1,20,0.02
2013-3-21,75,66,54,62,53,42,92,68,33,29.92,29.80,7,2,14,0.00
2013-3-22,76,66,52,69,58,51,98,80,58,29.98,29.87,5,1,13,0.02
2013-3-23,89,77,68,74,70,67,97,81,50,29.96,29.76,6,1,11,0.00
2013-3-24,90,79,72,73,71,66,97,79,51,29.86,29.65,13,4,30,0.35
2013-3-25,78,72,64,73,58,38,97,65,30,29.96,29.71,7,2,17,0.03
2013-3-26,66,60,52,42,37,30,56,42,26,30.19,29.96,10,4,20,0.00
2013-3-27,70,57,46,47,39,32,75,53,29,30.23,30.15,8,2,16,0.00
2013-3-28,73,60,49,52,44,34,83,59,28,30.24,30.14,8,2,14,0.00
2013-3-29,75,63,51,54,49,46,85,63,40,30.26,30.18,7,2,17,0.00
2013-3-30,76,64,53,57,52,48,95,68,38,30.24,30.14,7,1,13,0.00
2013-3-31,81,69,56,66,60,53,96,76,53,30.16,30.02,6,1,16,0.00
2013-4-1,88,75,64,71,65,60,97,75,40,30.02,29.90,9,2,22,0.00
2013-4-2,84,73,66,66,65,62,97,77,50,30.06,29.96,6,1,12,0.00
2013-4-3,83,74,66,70,67,64,95,79,59,30.06,29.98,6,1,16,0.00
2013-4-4,84,74,68,73,69,67,97,84,67,30.04,29.89,8,2,18,1.00
2013-4-5,71,67,64,70,66,63,98,96,89,29.99,29.82,7,2,15,0.42
2013-4-6,78,68,58,66,61,57,96,79,56,30.09,29.92,9,3,16,0.00
2013-4-7,79,73,65,65,63,60,91,72,58,30.14,30.03,9,3,17,0.03
2013-4-8,82,71,60,65,62,58,98,75,48,30.14,30.05,9,1,14,0.00
2013-4-9,83,74,68,69,67,62,91,77,53,30.15,30.05,9,3,19,0.00
2013-4-10,85,77,70,73,70,66,90,80,63,30.11,29.99,8,2,16,0.00
2013-4-11,85,78,75,74,72,70,92,82,67,30.02,29.90,7,3,18,0.01
2013-4-12,88,79,76,77,74,73,93,86,68,29.95,29.86,8,3,18,0.12
2013-4-13,86,75,70,76,72,68,98,92,72,29.97,29.87,13,1,21,1.73
2013-4-14,85,78,70,76,73,69,99,87,68,29.97,29.89,7,2,14,0.00
2013-4-15,89,77,69,78,72,68,98,88,64,30.06,29.93,11,1,21,1.33
2013-4-16,86,77,70,77,72,69,99,86,66,30.12,30.03,9,3,17,0.01
2013-4-17,85,78,72,71,69,66,90,74,54,30.11,30.02,8,2,15,0.00
2013-4-18,85,78,72,75,71,67,93,79,64,30.06,29.98,6,2,15,0.00
2013-4-19,86,80,75,75,72,69,93,78,59,30.05,29.96,8,3,16,0.03
2013-4-20,92,78,72,76,72,66,97,83,44,30.09,29.96,10,2,18,0.05
2013-4-21,85,77,72,75,72,70,96,84,66,30.09,29.98,9,2,17,0.00
2013-4-22,87,76,72,72,70,66,94,82,53,30.05,29.93,10,2,19,0.00
2013-4-23,84,76,68,68,66,61,94,72,52,30.09,29.96,10,4,20,0.00
2013-4-24,87,76,66,67,64,60,90,66,47,30.14,30.04,9,2,16,0.00
2013-4-25,84,75,66,66,63,60,90,67,45,30.20,30.08,9,2,17,0.00
2013-4-26,84,75,65,67,64,61,93,71,52,30.22,30.12,11,3,20,0.00
2013-4-27,84,77,68,67,64,58,83,66,44,30.21,30.09,11,4,19,0.00
2013-4-28,84,77,71,66,64,60,78,65,47,30.12,30.00,10,4,19,0.00
2013-4-29,84,76,69,71,68,63,88,76,61,30.04,29.93,7,2,15,0.00
2013-4-30,83,75,70,73,70,68,97,86,65,30.00,29.93,9,1,15,0.15
2013-5-1,84,74,68,74,70,67,98,89,65,30.00,29.93,7,1,13,0.36
2013-5-2,76,71,68,73,70,67,99,96,88,29.95,29.80,11,2,19,2.08
2013-5-3,88,74,68,73,70,68,99,88,54,29.82,29.67,8,2,16,0.59
2013-5-4,88,76,67,72,69,66,99,80,55,29.80,29.69,8,2,14,0.01
2013-5-5,84,74,68,68,62,52,95,70,34,29.93,29.76,10,3,17,0.00
2013-5-6,84,72,59,67,61,54,96,70,47,30.01,29.92,7,1,14,0.00
2013-5-7,86,73,62,64,60,56,84,65,40,30.06,29.97,10,2,16,0.00
2013-5-8,89,74,61,67,61,54,95,68,31,30.14,30.04,6,1,11,0.00
2013-5-9,88,77,66,74,68,61,87,75,52,30.14,30.05,5,1,11,0.00
2013-5-10,88,79,72,74,72,68,96,80,55,30.13,30.01,7,1,15,0.00
2013-5-11,87,78,72,77,73,70,97,87,64,30.07,29.97,7,2,14,0.62
2013-5-12,89,77,71,76,72,69,99,87,58,30.06,29.93,17,1,33,0.63
2013-5-13,88,78,70,73,69,63,98,77,44,30.09,29.99,9,2,16,0.00
2013-5-14,84,76,70,66,61,56,81,61,41,30.18,30.07,9,3,17,0.00
2013-5-15,84,75,66,66,62,58,87,65,45,30.19,30.09,10,3,16,0.00
2013-5-16,86,76,65,67,64,60,92,68,48,30.11,30.04,8,2,15,0.00
2013-5-17,85,77,69,74,70,64,93,79,62,30.09,30.01,9,2,15,0.00
2013-5-18,86,78,72,77,72,69,96,84,69,30.10,30.03,6,1,13,0.60
2013-5-19,88,79,71,72,70,68,95,77,53,30.10,30.00,8,2,14,0.00
2013-5-20,77,74,70,74,72,66,98,92,86,30.09,29.98,11,1,24,0.68
2013-5-21,83,75,69,76,71,67,98,88,69,30.06,29.93,8,2,20,0.57
2013-5-22,87,76,72,76,72,69,96,87,65,29.97,29.90,6,1,14,0.16
2013-5-23,96,81,72,76,73,67,97,78,40,30.00,29.91,7,2,14,0.00
2013-5-24,93,83,75,76,73,65,95,74,44,30.07,29.95,7,2,13,0.00
2013-5-25,87,80,75,75,69,64,94,70,48,30.16,30.04,11,4,19,0.02
2013-5-26,86,78,69,69,65,61,86,65,51,30.17,30.11,10,4,18,0.00
2013-5-27,86,78,72,73,70,64,93,75,64,30.16,30.07,10,5,21,0.29
2013-5-28,84,77,73,75,73,71,95,87,73,30.12,30.05,12,5,25,0.99
2013-5-29,80,75,70,74,72,69,97,90,69,30.10,30.03,10,3,24,2.87
2013-5-30,83,77,71,76,72,68,96,86,71,30.07,30.00,14,6,28,0.20
2013-5-31,85,78,74,76,74,71,96,87,72,30.06,30.00,11,5,20,0.39
2013-6-1,84,76,73,78,74,72,97,94,80,30.03,29.96,7,1,16,2.36
2013-6-2,86,78,72,78,74,71,97,88,71,30.01,29.92,8,0,16,0.00
2013-6-3,84,77,73,77,74,72,96,92,77,30.04,29.91,7,0,14,1.06
2013-6-4,85,78,74,78,75,72,97,90,73,30.05,29.96,6,0,11,0.04
2013-6-5,82,80,78,78,76,74,93,89,83,30.02,29.90,6,2,12,0.07
2013-6-6,86,78,74,80,76,72,97,91,79,29.91,29.77,11,3,26,1.09
2013-6-7,88,77,74,80,74,72,97,91,71,30.00,29.84,9,1,17,0.37
2013-6-8,82,77,74,79,75,73,97,93,83,30.11,29.96,6,1,12,1.11
2013-6-9,87,81,76,77,75,74,94,82,70,30.12,30.04,8,2,15,0.00
2013-6-10,90,83,79,79,76,75,90,81,65,30.09,30.01,8,2,16,0.00
2013-6-11,87,81,76,78,77,74,95,86,73,30.10,30.01,6,0,12,0.11
2013-6-12,88,79,75,78,76,73,96,90,69,30.09,30.02,11,0,22,0.56
2013-6-13,90,80,74,78,75,72,97,86,60,30.05,29.94,6,1,14,0.00
2013-6-14,94,81,75,77,74,69,97,79,51,29.97,29.88,8,2,14,0.00
2013-6-15,93,83,75,78,75,69,95,77,46,30.06,29.93,6,1,12,0.00
2013-6-16,93,84,76,78,76,74,94,78,56,30.09,30.02,7,1,13,0.00
2013-6-17,92,84,77,78,76,74,94,78,59,30.08,30.01,5,1,12,0.00
2013-6-18,91,84,77,78,76,74,94,78,59,30.07,29.98,5,1,12,0.00
2013-6-19,91,84,78,78,76,74,91,78,59,30.05,29.98,4,1,14,0.00
2013-6-20,93,81,72,77,74,70,95,79,54,30.09,30.02,8,1,20,0.04
2013-6-21,92,82,76,77,74,72,95,77,56,30.11,30.03,6,1,12,0.00
2013-6-22,92,83,76,76,74,72,92,74,54,30.10,30.04,8,2,14,0.00
2013-6-23,89,82,76,78,75,72,94,80,63,30.13,30.05,10,2,18,0.10
2013-6-24,91,84,78,77,74,71,85,73,56,30.16,30.08,8,3,16,0.00
2013-6-25,92,83,78,78,75,72,88,77,62,30.13,30.04,8,2,16,0.00
2013-6-26,90,82,78,77,75,73,92,79,59,30.08,30.01,7,1,13,0.02
2013-6-27,87,80,77,79,75,73,93,85,72,30.06,29.95,6,0,11,0.42
2013-6-28,91,81,73,78,75,71,96,83,59,30.00,29.86,11,1,19,1.21
2013-6-29,92,79,73,78,75,71,97,88,57,29.93,29.81,10,0,17,0.34
2013-6-30,88,78,74,78,75,72,96,91,68,29.95,29.85,8,1,14,0.37
2013-7-1,88,80,75,78,76,72,96,87,68,30.04,29.92,8,2,15,0.12
2013-7-2,88,81,75,79,76,72,95,85,73,30.11,29.98,5,1,12,0.02
2013-7-3,87,80,77,79,76,74,92,86,72,30.13,30.05,8,2,20,0.06
2013-7-4,88,82,77,79,76,72,93,81,68,30.15,30.07,7,2,19,0.06
2013-7-5,84,78,73,78,75,71,95,90,80,30.14,30.05,8,2,19,0.67
2013-7-6,88,81,78,78,75,73,89,81,68,30.12,30.03,9,2,19,0.01
2013-7-7,90,83,77,78,75,73,90,78,63,30.10,30.02,11,4,21,0.00
2013-7-8,91,83,76,77,74,71,89,75,55,30.15,30.08,8,2,17,0.00
2013-7-9,87,80,76,76,74,71,89,80,64,30.14,30.05,9,2,16,0.09
2013-7-10,86,78,71,76,73,68,94,86,70,30.09,30.00,6,1,11,0.33
2013-7-11,90,81,76,78,75,72,93,81,61,30.05,29.94,7,1,13,0.00
2013-7-12,90,79,74,77,74,70,93,84,58,29.97,29.90,9,0,16,0.16
2013-7-13,84,75,73,78,72,71,95,92,74,30.03,29.92,5,0,12,1.51
2013-7-14,88,77,72,77,73,70,95,87,64,30.09,29.99,9,1,15,0.13
2013-7-15,90,79,72,77,73,70,94,82,60,30.11,30.01,8,2,15,0.48
2013-7-16,83,76,73,75,72,69,92,86,69,30.15,30.05,11,2,20,0.23
2013-7-17,82,77,74,75,73,71,93,86,77,30.15,30.04,7,1,14,0.10
2013-7-18,86,77,72,78,73,69,93,87,72,30.13,30.06,8,1,18,0.50
2013-7-19,88,80,74,78,75,71,93,86,72,30.13,30.04,6,1,14,0.01
2013-7-20,86,81,76,79,76,72,92,85,77,30.12,30.03,6,1,12,0.09
2013-7-21,87,79,76,79,75,72,93,88,75,30.16,30.04,7,0,12,0.44
2013-7-22,90,82,76,78,75,72,92,80,62,30.14,30.06,4,0,8,0.00
2013-7-23,94,84,76,78,75,70,91,76,45,30.11,29.97,5,1,10,0.00
2013-7-24,95,85,77,77,74,66,89,71,45,30.02,29.91,8,2,15,0.00
2013-7-25,94,88,81,79,76,75,83,70,57,30.01,29.96,9,3,15,0.02
2013-7-26,92,82,77,78,75,74,88,80,59,30.02,29.93,8,2,15,0.04
2013-7-27,93,79,75,79,74,71,92,86,58,30.00,29.93,7,0,11,0.37
2013-7-28,83,78,73,78,74,70,93,90,83,30.08,29.95,7,0,12,1.25
2013-7-29,91,81,75,80,75,72,92,83,65,30.14,30.02,7,1,15,0.00
2013-7-30,91,84,76,79,76,73,89,79,65,30.16,30.08,9,2,14,0.01
2013-7-31,91,84,78,79,76,73,88,77,59,30.11,30.00,8,2,15,0.00
2013-8-1,91,83,77,77,74,72,87,76,57,30.06,29.94,9,2,17,0.00
2013-8-2,91,80,75,78,74,72,89,80,58,30.05,29.92,7,1,14,0.05
2013-8-3,85,77,72,78,73,69,92,88,70,30.13,30.02,11,0,17,0.18
2013-8-4,93,80,75,80,74,72,93,84,60,30.11,29.97,12,1,24,0.10
2013-8-5,93,80,76,79,75,72,93,84,60,30.04,29.94,9,1,20,0.04
2013-8-6,92,82,76,80,75,73,91,82,64,29.98,29.89,6,0,12,0.00
2013-8-7,89,82,77,79,75,73,91,81,69,29.99,29.90,7,1,13,0.04
2013-8-8,90,83,78,78,76,73,88,79,63,30.02,29.93,8,2,17,0.03
2013-8-9,89,81,79,78,74,71,88,79,67,30.07,29.96,10,2,21,0.12
2013-8-10,91,83,78,80,76,73,87,78,63,30.11,30.04,7,2,15,0.00
2013-8-11,91,84,78,79,76,74,87,76,63,30.13,30.06,8,2,14,0.00
2013-8-12,91,83,76,77,75,72,88,76,56,30.11,30.01,8,2,14,0.00
2013-8-13,91,84,78,78,75,73,89,76,59,30.04,29.95,6,1,14,0.00
2013-8-14,91,82,76,78,74,72,90,77,58,30.02,29.92,5,1,13,0.00
2013-8-15,88,80,75,77,75,71,91,83,69,30.06,29.96,4,0,13,0.16
2013-8-16,91,84,78,80,76,73,89,80,64,30.05,29.97,7,1,13,0.00
2013-8-17,90,85,79,80,77,75,88,79,66,30.08,30.00,8,2,16,0.00
2013-8-18,90,84,80,79,77,74,85,79,67,30.08,29.99,9,2,16,0.00
2013-8-19,91,84,79,79,76,75,87,78,65,30.08,29.96,7,2,15,0.00
2013-8-20,91,84,78,78,76,72,89,76,59,30.07,29.98,9,2,18,0.15
2013-8-21,89,82,78,80,77,74,90,83,67,30.07,29.99,9,3,18,0.19
2013-8-22,90,84,78,80,77,73,89,80,64,30.06,29.96,8,2,15,0.08
2013-8-23,90,82,77,79,76,73,90,81,67,30.01,29.94,7,1,14,0.00
2013-8-24,92,83,77,78,75,72,90,78,59,30.11,29.98,7,1,14,0.00
2013-8-25,88,82,77,77,74,72,87,80,65,30.15,30.03,6,2,12,0.00
2013-8-26,88,80,71,78,74,68,92,82,67,30.12,30.01,8,1,14,1.22
2013-8-27,85,78,73,76,73,70,93,85,68,30.05,29.97,4,0,9,0.03
2013-8-28,88,79,74,77,74,71,92,85,68,30.04,29.95,7,1,14,0.53
2013-8-29,89,81,74,78,74,70,90,81,66,30.03,29.92,6,1,13,0.00
2013-8-30,90,82,75,77,74,71,92,78,53,30.00,29.90,5,0,13,0.00
2013-8-31,90,80,74,78,74,70,90,83,61,29.98,29.91,7,0,15,0.10
2013-9-1,89,80,74,78,74,71,93,85,64,30.00,29.93,3,0,9,0.00
2013-9-2,92,78,74,79,74,71,93,87,59,30.06,29.94,17,0,30,2.93
2013-9-3,89,80,73,79,74,71,94,84,63,30.02,29.93,5,0,11,0.00
2013-9-4,88,82,78,80,77,74,90,84,74,30.06,29.95,5,0,12,0.00
2013-9-5,92,84,79,79,77,75,89,80,60,30.07,29.99,7,1,13,0.00
2013-9-6,92,84,78,79,76,75,91,80,60,30.04,29.92,7,1,14,0.01
2013-9-7,87,78,74,78,74,70,91,86,72,29.98,29.90,10,1,17,0.21
2013-9-8,85,79,74,78,74,71,92,86,73,29.95,29.86,9,0,17,0.04
2013-9-9,90,80,73,78,74,71,93,82,63,30.00,29.90,8,2,18,0.18
2013-9-10,88,81,76,78,74,72,89,80,67,30.04,29.95,12,3,20,0.02
2013-9-11,81,78,73,76,74,70,92,88,82,30.07,29.97,9,1,15,0.58
2013-9-12,84,79,76,78,75,72,92,87,76,30.01,29.89,3,0,8,0.00
2013-9-13,89,81,74,79,75,72,93,83,63,29.91,29.80,5,0,11,0.03
2013-9-14,91,82,75,77,75,72,92,79,57,29.97,29.82,7,1,14,0.00
2013-9-15,86,80,73,79,75,70,92,86,77,30.06,29.92,9,1,19,0.55
2013-9-16,84,78,75,78,75,72,92,89,78,30.05,29.96,8,2,17,0.46
2013-9-17,80,77,74,76,74,71,92,89,85,30.04,29.91,7,2,13,0.76
2013-9-18,85,78,74,78,74,71,92,87,75,30.01,29.92,7,1,13,0.42
2013-9-19,88,80,74,78,74,71,93,83,69,30.00,29.92,10,3,16,0.06
2013-9-20,88,80,73,75,71,69,90,76,56,29.99,29.90,9,2,16,0.03
2013-9-21,88,79,72,76,72,69,91,80,64,29.92,29.77,5,1,10,0.01
2013-9-22,92,82,75,78,74,72,92,80,56,29.86,29.75,7,1,14,0.00
2013-9-23,86,80,77,79,76,74,92,88,77,29.98,29.85,5,0,15,0.24
2013-9-24,88,79,75,81,75,71,93,88,73,29.97,29.86,7,1,15,0.47
2013-9-25,88,79,74,79,74,71,92,84,62,29.91,29.78,8,2,18,0.27
2013-9-26,90,79,75,80,76,73,92,88,69,29.86,29.78,12,2,24,0.51
2013-9-27,90,80,74,75,72,67,92,79,48,29.91,29.82,7,2,14,0.01
2013-9-28,86,79,74,75,72,70,90,81,66,29.96,29.87,9,2,16,0.51
2013-9-29,86,78,71,73,71,68,92,79,60,29.96,29.87,7,1,13,0.01
2013-9-30,88,79,72,74,71,69,91,79,60,30.00,29.90,6,1,12,0.00
2013-10-1,87,81,74,75,72,70,89,77,62,30.03,29.95,8,3,16,0.00
2013-10-2,86,82,78,74,73,72,82,75,63,30.04,29.97,10,3,17,0.00
2013-10-3,87,81,76,76,74,70,87,78,60,30.05,29.95,8,2,13,0.00
2013-10-4,87,80,74,74,72,70,90,77,58,30.06,29.98,8,1,15,0.00
2013-10-5,87,79,71,74,72,68,91,78,61,30.03,29.93,8,1,12,0.00
2013-10-6,88,80,74,77,73,70,91,79,59,29.97,29.86,5,1,12,0.00
2013-10-7,90,78,73,77,72,70,92,84,58,29.89,29.80,14,1,27,0.92
2013-10-8,88,80,74,77,73,71,93,80,63,29.93,29.84,8,2,14,0.00
2013-10-9,84,77,72,77,72,69,91,85,75,29.98,29.89,8,2,15,0.03
2013-10-10,87,78,71,75,71,68,91,79,60,30.00,29.93,7,2,15,0.00
2013-10-11,86,77,70,72,68,66,90,77,56,30.01,29.93,7,1,14,0.00
2013-10-12,86,76,68,70,68,65,92,77,54,30.02,29.94,6,1,12,0.00
2013-10-13,86,77,71,70,67,63,90,74,49,30.05,29.96,7,1,15,0.00
2013-10-14,86,77,70,71,68,66,89,77,59,30.01,29.90,7,1,14,0.00
2013-10-15,86,77,71,73,70,67,90,80,60,29.95,29.86,6,1,12,0.00
2013-10-16,86,77,71,72,70,68,90,79,57,29.95,29.88,6,1,13,0.00
2013-10-17,86,77,71,73,70,68,91,80,62,29.96,29.89,5,1,11,0.00
2013-10-18,87,78,71,76,71,68,92,82,67,29.99,29.90,6,1,12,0.00
2013-10-19,89,80,71,75,72,68,92,79,60,29.96,29.87,6,1,14,0.00
2013-10-20,88,80,75,78,74,71,91,83,65,29.96,29.87,4,0,10,0.00
2013-10-21,90,81,74,78,75,71,92,81,63,30.00,29.90,4,0,10,0.00
2013-10-22,90,82,74,78,75,71,92,81,62,29.96,29.82,6,1,13,0.05
2013-10-23,87,80,75,75,72,69,90,79,63,29.95,29.82,8,2,15,0.00
2013-10-24,81,76,71,69,65,62,82,70,60,30.09,29.93,6,2,14,0.00
2013-10-25,82,75,68,67,64,62,85,70,52,30.15,30.07,10,3,21,0.00
2013-10-26,83,73,67,66,64,62,85,73,54,30.15,30.05,6,1,13,0.00
2013-10-27,82,73,65,68,64,60,85,74,57,30.09,30.01,6,1,12,0.00
2013-10-28,83,74,65,68,64,62,90,75,49,30.14,30.05,7,1,14,0.00
2013-10-29,83,75,67,70,67,64,90,75,57,30.17,30.09,10,3,17,0.00
2013-10-30,84,78,71,70,67,65,84,70,55,30.19,30.08,10,4,18,0.00
2013-10-31,84,79,75,73,70,66,88,76,65,30.11,29.99,8,2,16,0.05
2013-11-1,86,78,70,76,72,67,92,82,67,30.01,29.88,6,1,11,0.01
2013-11-2,88,78,70,74,70,63,92,77,52,29.93,29.80,8,1,18,0.00
2013-11-3,80,74,68,66,63,60,83,69,56,30.02,29.89,11,5,23,0.00
2013-11-4,80,75,69,68,64,59,87,69,58,30.08,30.01,13,6,26,0.17
2013-11-5,81,78,75,71,69,65,78,73,66,30.09,30.01,13,8,23,0.00
2013-11-6,83,78,70,70,68,66,88,74,59,30.06,29.99,10,4,20,0.00
2013-11-7,84,76,70,72,69,66,91,80,58,30.01,29.91,5,1,10,0.00
2013-11-8,83,75,71,74,70,66,90,82,64,30.04,29.94,9,4,21,0.75
2013-11-9,78,76,73,72,71,70,90,84,79,30.11,30.01,11,6,23,0.25
2013-11-10,83,78,75,73,71,69,86,78,68,30.12,30.04,8,3,16,0.00
2013-11-11,82,76,70,72,68,66,89,78,67,30.11,30.04,8,2,18,0.00
2013-11-12,83,75,69,70,68,65,89,77,60,30.08,29.96,6,1,14,0.00
2013-11-13,75,72,68,68,63,56,85,76,63,30.21,30.00,14,6,25,0.01
2013-11-14,76,72,68,62,59,56,74,64,56,30.24,30.14,11,6,23,0.00
2013-11-15,79,76,71,69,67,62,78,74,69,30.15,30.03,10,5,23,0.00
2013-11-16,79,76,73,72,70,68,90,82,74,30.09,30.01,7,2,16,0.18
2013-11-17,84,77,72,75,71,68,90,82,72,30.07,30.00,8,2,14,0.02
2013-11-18,80,74,70,74,70,67,92,87,80,30.02,29.91,2,0,7,0.04
2013-11-19,84,75,71,74,70,67,91,87,67,29.94,29.85,6,0,11,0.27
2013-11-20,83,75,68,75,70,66,92,86,76,30.05,29.92,7,1,12,0.01
2013-11-21,81,76,72,74,71,68,91,86,75,30.14,30.04,8,2,17,0.37
2013-11-22,81,77,75,72,70,68,87,79,70,30.15,30.07,10,5,21,0.04
2013-11-23,81,76,70,72,70,66,88,81,71,30.08,29.97,8,2,15,0.00
2013-11-24,81,72,67,70,67,64,91,83,64,30.14,29.98,11,4,21,0.14
2013-11-25,74,72,70,68,65,60,84,77,68,30.20,30.05,12,8,23,0.02
2013-11-26,83,77,71,75,72,68,90,85,74,30.05,29.82,10,4,25,0.06
2013-11-27,77,70,57,73,64,51,92,81,56,30.11,29.78,11,4,23,0.45
2013-11-28,73,62,48,59,53,44,88,73,54,30.24,30.12,9,3,17,0.00
2013-11-29,77,69,58,63,59,55,89,73,55,30.26,30.18,10,3,23,0.00
2013-11-30,76,69,61,69,62,58,91,81,65,30.21,30.10,13,3,22,0.33
2013-12-1,73,68,62,70,64,58,93,90,86,30.10,29.94,5,1,13,0.83
2013-12-2,72,67,60,66,63,57,92,88,73,29.94,29.82,6,1,13,0.00
2013-12-3,78,68,59,66,62,56,93,82,63,30.00,29.89,3,0,9,0.00
2013-12-4,81,71,63,70,65,60,92,82,64,30.09,29.98,3,0,9,0.00
2013-12-5,82,73,64,72,67,61,93,83,68,30.16,30.08,6,1,12,0.00
2013-12-6,82,76,67,72,69,64,89,80,65,30.18,30.09,7,1,14,0.00
2013-12-7,81,71,65,73,67,62,93,87,68,30.22,30.13,7,1,12,0.05
2013-12-14,81,77,71,73,71,68,91,81,72,30.09,29.98,6,2,14,0.03
2013-12-15,81,75,69,76,71,66,93,87,78,30.06,29.93,10,1,20,0.00
2013-12-16,74,67,61,66,61,57,89,80,67,30.16,30.04,7,3,14,0.00
2013-12-17,76,66,58,64,59,56,92,79,60,30.18,30.09,9,2,15,0.00
2013-12-18,75,65,59,59,58,56,92,78,57,30.24,30.14,8,2,15,0.00
2013-12-19,76,67,57,63,60,54,92,78,59,30.24,30.15,9,2,16,0.00
2013-12-20,80,73,66,71,67,61,88,80,70,30.19,30.10,8,2,15,0.00
2013-12-21,82,77,74,74,71,69,87,82,70,30.15,30.06,6,2,15,0.00
2013-12-22,84,78,76,73,72,71,87,81,69,30.16,30.08,8,2,17,0.00
2013-12-23,84,78,70,74,72,67,91,83,69,30.17,30.10,7,2,13,0.00
2013-12-24,80,70,65,73,66,61,95,85,74,30.17,30.09,11,3,20,0.00
2013-12-25,76,72,70,68,65,63,89,80,71,30.17,30.10,10,4,21,0.03
2013-12-26,79,74,72,70,69,66,87,83,74,30.17,30.06,9,2,13,0.00
2013-12-27,80,75,70,71,69,67,90,82,72,30.19,30.09,8,3,18,0.00
2013-12-28,79,75,72,72,70,68,92,84,77,30.17,30.02,10,4,19,0.10
2013-12-29,82,76,73,75,72,70,93,88,78,30.03,29.92,8,2,16,0.00
2013-12-30,77,72,68,71,68,64,94,89,78,30.14,29.98,6,1,13,0.04
2013-12-31,77,72,67,67,64,62,88,77,65,30.23,30.11,10,4,19,0.00
2014-1-1,81,75,73,74,70,65,92,83,75,30.19,30.04,10,3,21,0.00
2014-1-2,86,75,66,72,68,64,94,80,56,30.04,29.86,9,2,18,0.00